Time;durP1;ratioP1;P1;durP2;ratioP2;P2;SDS_P1;SDS_P2;PMS_P1;PMS_P2;Temp;Humidity;BMP_temperature;BMP_pressure;BME280_temperature;BME280_humidity;BME280_pressure;Samples;Min_cycle;Max_cycle;Signal;HPM_P1;HPM_P2
2022/08/13 00:00:14;;;;;;;7.03;3.10;;;;;;;16.10;67.92;96308.06;4966179;28;20058;-79
2022/08/13 00:02:42;;;;;;;5.13;2.72;;;;;;;16.08;67.48;96304.88;4965836;28;20062;-79
2022/08/13 00:05:09;;;;;;;4.90;2.95;;;;;;;16.10;68.05;96301.75;4967648;28;20051;-79
2022/08/13 00:07:38;;;;;;;4.95;2.67;;;;;;;16.10;67.70;96305.31;4963673;28;20114;-80
2022/08/13 00:10:07;;;;;;;6.22;3.03;;;;;;;16.11;67.73;96304.16;4980659;28;20048;-79
2022/08/13 00:15:26;;;;;;;10.10;4.15;;;;;;;16.16;67.06;96300.34;4942440;28;20074;-80
2022/08/13 00:17:53;;;;;;;6.28;3.15;;;;;;;16.17;67.28;96307.44;4943276;28;20043;-80
2022/08/13 00:20:22;;;;;;;4.65;2.65;;;;;;;16.15;67.47;96309.75;4954763;28;20042;-81
2022/08/13 00:22:50;;;;;;;15.27;6.65;;;;;;;16.17;68.00;96301.94;4953796;28;20047;-79
2022/08/13 00:25:18;;;;;;;4.65;2.75;;;;;;;16.17;68.46;96304.69;4974548;28;20054;-80
2022/08/13 00:27:47;;;;;;;5.00;2.72;;;;;;;16.15;67.77;96304.25;4976021;28;20066;-79
2022/08/13 00:30:15;;;;;;;5.35;2.78;;;;;;;16.17;67.39;96299.97;4975291;28;20474;-80
2022/08/13 00:32:43;;;;;;;4.13;2.55;;;;;;;16.22;67.07;96298.13;4975085;28;20074;-80
2022/08/13 00:35:10;;;;;;;5.03;2.55;;;;;;;16.27;67.43;96295.91;4974304;28;20074;-79
2022/08/13 00:37:37;;;;;;;7.25;3.45;;;;;;;16.25;66.08;96281.72;4975217;28;20414;-80
2022/08/13 00:40:07;;;;;;;4.30;2.58;;;;;;;16.25;65.85;96286.44;4974579;28;20066;-79
2022/08/13 00:42:33;;;;;;;7.53;2.90;;;;;;;16.23;65.85;96283.22;4975149;28;20041;-79
2022/08/13 00:45:00;;;;;;;5.60;2.80;;;;;;;16.25;65.90;96287.22;4975574;28;20051;-80
2022/08/13 00:50:12;;;;;;;4.55;2.58;;;;;;;16.19;66.21;96272.16;4976541;28;20053;-80
2022/08/13 00:52:41;;;;;;;5.53;3.30;;;;;;;16.16;66.58;96267.38;4977833;28;20070;-79
2022/08/13 00:55:16;;;;;;;4.95;2.60;;;;;;;16.17;66.58;96266.22;4960321;28;20051;-79
2022/08/13 00:57:44;;;;;;;6.97;2.80;;;;;;;16.13;66.76;96268.06;4959518;28;20422;-80
2022/08/13 01:00:15;;;;;;;5.78;2.58;;;;;;;16.20;66.46;96257.28;4959714;28;20071;-80
2022/08/13 01:02:44;;;;;;;4.38;2.33;;;;;;;16.12;66.20;96266.50;4958643;28;20134;-79
2022/08/13 01:05:10;;;;;;;5.25;3.00;;;;;;;16.06;66.87;96262.41;4956703;28;20055;-79
2022/08/13 01:07:41;;;;;;;4.15;2.60;;;;;;;16.04;68.13;96260.03;4958360;28;20047;-81
2022/08/13 01:10:11;;;;;;;4.05;2.83;;;;;;;16.04;67.97;96265.53;4958404;28;20050;-78
2022/08/13 01:12:39;;;;;;;5.18;3.03;;;;;;;16.06;67.01;96259.69;4958934;28;20067;-81
2022/08/13 01:15:11;;;;;;;7.15;3.70;;;;;;;16.06;66.83;96263.22;4957402;28;20070;-79
2022/08/13 01:17:39;;;;;;;5.05;2.92;;;;;;;16.04;67.70;96253.75;4959508;28;20051;-79
2022/08/13 01:20:09;;;;;;;5.20;3.03;;;;;;;16.01;67.79;96266.22;4956888;28;20506;-79
2022/08/13 01:22:38;;;;;;;5.53;2.95;;;;;;;16.04;67.66;96264.75;4957419;28;20075;-80
2022/08/13 01:25:06;;;;;;;3.20;2.20;;;;;;;16.08;67.80;96255.44;4957745;28;20095;-79
2022/08/13 01:27:33;;;;;;;4.40;2.85;;;;;;;16.08;67.63;96262.88;4957721;28;20051;-79
2022/08/13 01:30:03;;;;;;;8.48;2.97;;;;;;;16.07;66.79;96256.56;4956846;28;20043;-80
2022/08/13 01:32:30;;;;;;;5.72;2.90;;;;;;;16.06;66.95;96256.94;4956313;28;20039;-80
2022/08/13 01:35:00;;;;;;;6.78;3.08;;;;;;;16.03;66.04;96263.16;4956885;28;20396;-79
2022/08/13 01:37:27;;;;;;;5.50;3.00;;;;;;;15.98;66.82;96260.66;4956662;28;20112;-80
2022/08/13 01:39:55;;;;;;;11.05;3.65;;;;;;;15.90;66.77;96276.16;4957017;28;20046;-80
2022/08/13 01:42:22;;;;;;;4.82;3.03;;;;;;;15.84;66.60;96267.38;4954745;28;20050;-80
2022/08/13 01:44:50;;;;;;;5.53;3.22;;;;;;;15.78;67.35;96263.31;4956365;28;20561;-79
2022/08/13 01:52:50;;;;;;;6.70;3.75;;;;;;;15.53;68.35;96261.84;4956325;28;20174;-80
2022/08/13 01:55:19;;;;;;;6.15;3.47;;;;;;;15.47;68.59;96258.56;4955575;28;20058;-79
2022/08/13 01:57:45;;;;;;;5.82;3.15;;;;;;;15.48;68.62;96254.66;4956473;28;20055;-80
2022/08/13 02:00:20;;;;;;;5.85;3.33;;;;;;;15.44;68.47;96255.72;4955682;28;20437;-80
2022/08/13 02:02:48;;;;;;;4.82;3.00;;;;;;;15.37;68.60;96259.06;4955905;28;20051;-80
2022/08/13 02:05:14;;;;;;;5.20;3.13;;;;;;;15.35;69.18;96256.69;4955464;28;20047;-80
2022/08/13 02:07:44;;;;;;;5.28;3.30;;;;;;;15.38;69.49;96263.41;4956599;28;20549;-80
2022/08/13 02:10:11;;;;;;;5.43;2.67;;;;;;;15.38;68.91;96260.66;4956561;28;20055;-79
2022/08/13 02:12:40;;;;;;;5.28;3.53;;;;;;;15.38;69.13;96261.44;4956208;28;20623;-80
2022/08/13 02:15:08;;;;;;;5.95;3.60;;;;;;;15.33;68.96;96253.47;4957253;28;20051;-79
2022/08/13 02:17:41;;;;;;;6.55;3.95;;;;;;;15.33;68.23;96255.44;4957734;28;20051;-80
2022/08/13 02:20:12;;;;;;;5.60;3.40;;;;;;;15.29;69.01;96252.56;4957512;28;20059;-79
2022/08/13 02:22:41;;;;;;;6.25;3.80;;;;;;;15.25;69.08;96256.41;4956832;28;20062;-80
2022/08/13 02:25:12;;;;;;;6.35;3.50;;;;;;;15.25;69.29;96257.19;4961659;28;20051;-79
2022/08/13 02:27:40;;;;;;;5.20;3.10;;;;;;;15.28;69.65;96259.22;4955859;28;20525;-80
2022/08/13 02:30:09;;;;;;;5.43;3.58;;;;;;;15.32;69.51;96256.59;4953108;28;20094;-79
2022/08/13 02:32:38;;;;;;;7.35;3.90;;;;;;;15.21;69.13;96256.28;4953298;28;20462;-79
2022/08/13 02:35:07;;;;;;;7.63;3.55;;;;;;;15.12;69.50;96256.44;4973397;28;20137;-80
2022/08/13 02:37:34;;;;;;;7.35;4.00;;;;;;;15.11;70.14;96251.31;4952604;28;20108;-79
2022/08/13 02:40:03;;;;;;;5.30;3.40;;;;;;;15.10;69.93;96253.25;4952743;28;20491;-80
2022/08/13 02:42:31;;;;;;;6.78;3.85;;;;;;;15.07;70.00;96253.94;4951979;28;20521;-80
2022/08/13 02:45:00;;;;;;;6.20;3.78;;;;;;;15.02;70.14;96253.41;4953013;28;20066;-80
2022/08/13 02:47:32;;;;;;;7.75;4.13;;;;;;;14.92;70.71;96262.91;4955321;28;20438;-79
2022/08/13 02:49:59;;;;;;;6.90;4.07;;;;;;;14.96;70.77;96257.53;4956512;28;20047;-79
2022/08/13 02:52:28;;;;;;;7.95;4.15;;;;;;;14.88;70.70;96254.59;4955780;28;20128;-79
2022/08/13 02:54:55;;;;;;;5.68;3.53;;;;;;;14.83;71.36;96252.09;4968828;28;20055;-80
2022/08/13 02:57:22;;;;;;;6.72;3.90;;;;;;;14.82;71.18;96250.47;4975501;28;20047;-79
2022/08/13 02:59:48;;;;;;;6.90;3.88;;;;;;;14.81;71.34;96254.38;4975831;28;20054;-79
2022/08/13 03:02:17;;;;;;;8.05;4.30;;;;;;;14.77;71.33;96245.28;4975166;28;20058;-80
2022/08/13 03:04:47;;;;;;;8.23;4.13;;;;;;;14.78;71.34;96244.13;4975305;28;20050;-79
2022/08/13 03:07:13;;;;;;;7.25;4.28;;;;;;;14.78;72.26;96248.81;4975599;28;20047;-80
2022/08/13 03:09:40;;;;;;;9.68;5.13;;;;;;;14.77;71.59;96248.03;4975111;28;20050;-79
2022/08/13 03:12:09;;;;;;;9.57;4.30;;;;;;;14.75;71.67;96258.50;4973591;28;20043;-78
2022/08/13 03:14:37;;;;;;;7.47;3.97;;;;;;;14.72;72.47;96259.22;4975495;28;20055;-80
2022/08/13 03:17:04;;;;;;;7.68;4.82;;;;;;;14.67;72.79;96264.94;4974773;28;20065;-79
2022/08/13 03:19:32;;;;;;;6.95;3.85;;;;;;;14.73;72.67;96258.06;4975455;28;20049;-80
2022/08/13 03:22:01;;;;;;;7.47;4.60;;;;;;;14.78;72.29;96260.56;4975288;28;20139;-79
2022/08/13 03:24:28;;;;;;;7.07;4.60;;;;;;;14.74;71.89;96254.19;4962676;28;20123;-79
2022/08/13 03:26:54;;;;;;;6.70;3.85;;;;;;;14.71;72.44;96254.06;4955769;28;20058;-80
2022/08/13 03:29:21;;;;;;;9.23;4.90;;;;;;;14.68;72.34;96241.88;4955522;28;20047;-79
2022/08/13 03:31:48;;;;;;;7.20;4.40;;;;;;;14.68;72.72;96244.63;4955475;28;20047;-80
2022/08/13 03:34:15;;;;;;;10.20;5.32;;;;;;;14.68;72.12;96244.63;4955151;28;20051;-80
2022/08/13 03:36:44;;;;;;;6.63;3.97;;;;;;;14.51;71.81;96250.34;4956605;28;20078;-79
2022/08/13 03:39:10;;;;;;;7.68;4.47;;;;;;;14.42;72.27;96263.38;4955061;28;20097;-80
2022/08/13 03:41:37;;;;;;;7.05;3.75;;;;;;;14.38;72.60;96251.50;4955145;28;20058;-79
2022/08/13 03:44:05;;;;;;;7.28;4.35;;;;;;;14.27;72.55;96256.63;4955274;28;20051;-79
2022/08/13 03:46:33;;;;;;;6.32;4.00;;;;;;;14.26;73.00;96249.56;4955683;28;20043;-79
2022/08/13 03:48:59;;;;;;;6.95;4.30;;;;;;;14.29;72.91;96249.66;4955315;28;20450;-79
2022/08/13 03:51:26;;;;;;;12.05;4.78;;;;;;;14.27;73.51;96251.16;4954521;28;20047;-79
2022/08/13 03:53:54;;;;;;;7.15;4.47;;;;;;;14.22;73.59;96249.44;4955642;28;20047;-80
2022/08/13 03:56:24;;;;;;;9.38;4.85;;;;;;;14.23;74.19;96255.72;4954006;28;20051;-80
2022/08/13 03:58:51;;;;;;;8.00;4.72;;;;;;;14.22;74.71;96249.44;4956217;28;20047;-80
2022/08/13 04:01:18;;;;;;;8.52;4.60;;;;;;;14.21;74.56;96253.34;4956081;28;20078;-80
2022/08/13 04:03:46;;;;;;;8.38;4.18;;;;;;;14.16;74.78;96250.03;4956539;28;20051;-81
2022/08/13 04:06:15;;;;;;;8.02;4.40;;;;;;;14.16;75.22;96247.28;4956664;28;20054;-80
2022/08/13 04:08:42;;;;;;;9.18;4.60;;;;;;;14.17;75.58;96243.41;4956679;28;20059;-80
2022/08/13 04:11:13;;;;;;;7.25;4.43;;;;;;;14.18;75.13;96245.00;4956195;28;20058;-80
2022/08/13 04:13:41;;;;;;;10.40;4.53;;;;;;;14.25;75.50;96243.28;4955895;28;20431;-80
2022/08/13 04:16:10;;;;;;;7.07;4.50;;;;;;;14.25;75.33;96245.22;4954582;28;20051;-80
2022/08/13 04:18:37;;;;;;;6.32;4.07;;;;;;;14.16;74.40;96245.34;4954945;28;20461;-80
2022/08/13 04:21:06;;;;;;;8.02;4.03;;;;;;;14.09;74.93;96245.94;4955055;28;20047;-79
2022/08/13 04:23:34;;;;;;;6.30;4.20;;;;;;;14.09;74.82;96240.47;4954613;28;20042;-80
2022/08/13 04:26:01;;;;;;;5.40;4.03;;;;;;;14.11;74.89;96240.09;4955247;28;20098;-80
2022/08/13 04:28:29;;;;;;;8.10;4.82;;;;;;;14.15;75.51;96235.56;4955149;28;20398;-80
2022/08/13 04:30:58;;;;;;;8.27;4.80;;;;;;;14.14;75.06;96242.13;4955256;28;20070;-79
2022/08/13 04:33:25;;;;;;;8.20;4.60;;;;;;;14.11;75.05;96231.91;4953745;28;20073;-80
2022/08/13 04:35:52;;;;;;;9.10;5.03;;;;;;;14.18;75.08;96232.09;4953820;28;20071;-79
2022/08/13 04:38:18;;;;;;;8.05;4.97;;;;;;;14.21;75.53;96236.91;4953709;28;20055;-79
2022/08/13 04:40:47;;;;;;;7.38;4.63;;;;;;;14.25;75.39;96237.81;4955189;28;20047;-79
2022/08/13 04:43:14;;;;;;;9.85;4.53;;;;;;;14.22;75.46;96230.28;4956031;28;20054;-80
2022/08/13 04:45:43;;;;;;;8.60;5.18;;;;;;;14.14;76.05;96228.44;4955459;28;20059;-80
2022/08/13 04:48:12;;;;;;;6.47;4.43;;;;;;;14.05;75.69;96228.59;4955497;28;20110;-80
2022/08/13 04:50:40;;;;;;;6.90;4.35;;;;;;;14.06;75.51;96224.72;4956225;28;20047;-80
2022/08/13 04:53:08;;;;;;;9.18;5.18;;;;;;;14.12;75.74;96228.00;4955690;28;20055;-80
2022/08/13 04:55:37;;;;;;;6.97;4.45;;;;;;;14.08;76.11;96230.63;4955327;28;20051;-79
2022/08/13 04:58:04;;;;;;;8.70;4.70;;;;;;;14.08;75.92;96221.63;4955487;28;20146;-79
2022/08/13 05:00:33;;;;;;;7.75;5.00;;;;;;;14.09;76.38;96234.16;4955194;28;20051;-80
2022/08/13 05:03:10;;;;;;;8.38;5.22;;;;;;;14.10;76.24;96228.34;4955126;28;20499;-81
2022/08/13 05:05:37;;;;;;;7.55;4.68;;;;;;;14.19;76.41;96228.22;4955098;28;20039;-80
2022/08/13 05:08:05;;;;;;;8.10;5.22;;;;;;;14.20;76.50;96224.38;4953255;28;20075;-80
2022/08/13 05:10:32;;;;;;;7.78;5.45;;;;;;;14.22;76.56;96227.53;4955157;28;20432;-81
2022/08/13 05:13:01;;;;;;;9.15;5.88;;;;;;;14.27;77.03;96223.78;4954327;28;20047;-80
2022/08/13 05:15:28;;;;;;;8.07;5.55;;;;;;;14.28;77.18;96226.16;4955114;28;20043;-80
2022/08/13 05:17:54;;;;;;;7.35;5.25;;;;;;;14.36;77.71;96222.50;4955956;28;20079;-80
2022/08/13 05:20:22;;;;;;;10.48;6.15;;;;;;;14.39;76.87;96220.22;4954223;28;20082;-82
2022/08/13 05:22:49;;;;;;;9.40;5.93;;;;;;;14.35;76.98;96223.66;4954592;28;20221;-80
2022/08/13 05:25:15;;;;;;;8.60;5.78;;;;;;;14.33;77.57;96227.88;4954273;28;20554;-79
2022/08/13 05:27:44;;;;;;;8.43;5.75;;;;;;;14.36;77.51;96233.47;4954575;28;20047;-80
2022/08/13 05:30:12;;;;;;;8.88;6.10;;;;;;;14.44;77.86;96230.94;4954664;28;20050;-80
2022/08/13 05:32:39;;;;;;;11.70;6.30;;;;;;;14.36;77.59;96233.47;4955242;28;20138;-80
2022/08/13 05:35:08;;;;;;;9.13;6.00;;;;;;;14.51;77.41;96231.16;4954100;28;20043;-80
2022/08/13 05:37:36;;;;;;;9.00;6.32;;;;;;;14.66;77.44;96235.91;4954527;28;20048;-81
2022/08/13 05:40:05;;;;;;;9.55;6.43;;;;;;;14.73;76.55;96230.66;4953062;28;20043;-80
2022/08/13 05:42:33;;;;;;;8.20;5.70;;;;;;;14.85;76.88;96238.84;4954038;28;20044;-79
2022/08/13 05:45:01;;;;;;;8.70;5.65;;;;;;;14.91;75.46;96235.84;4953947;28;20051;-80
2022/08/13 05:47:28;;;;;;;9.38;5.63;;;;;;;15.00;74.66;96237.31;4952739;28;20507;-80
2022/08/13 05:49:55;;;;;;;9.55;5.75;;;;;;;15.15;74.19;96235.75;4953713;28;20043;-79
2022/08/13 05:52:22;;;;;;;8.00;5.90;;;;;;;15.23;73.04;96236.72;4952816;28;20047;-79
2022/08/13 05:54:50;;;;;;;7.78;5.50;;;;;;;15.33;73.81;96242.50;4953727;28;20055;-80
2022/08/13 05:57:17;;;;;;;8.98;5.10;;;;;;;15.46;73.16;96245.19;4954031;28;20408;-79
2022/08/13 06:05:12;;;;;;;9.45;4.80;;;;;;;15.61;70.27;96236.19;4960927;28;20079;-76
2022/08/13 06:07:41;;;;;;;8.85;5.05;;;;;;;15.71;70.42;96246.66;4952269;28;20043;-77
2022/08/13 06:10:09;;;;;;;10.30;5.60;;;;;;;15.70;69.16;96238.78;4950230;28;20054;-77
2022/08/13 06:12:38;;;;;;;11.02;5.65;;;;;;;15.84;69.14;96236.38;4948252;28;20047;-77
2022/08/13 06:15:06;;;;;;;7.72;4.50;;;;;;;15.95;69.27;96233.91;4948528;28;20138;-78
2022/08/13 06:17:35;;;;;;;6.22;3.90;;;;;;;16.03;67.33;96230.19;4949395;28;20054;-77
2022/08/13 06:20:03;;;;;;;8.48;4.40;;;;;;;16.11;67.10;96227.22;4948291;28;20087;-77
2022/08/13 06:22:33;;;;;;;8.20;4.05;;;;;;;16.19;66.02;96233.72;4948305;28;20054;-77
2022/08/13 06:25:00;;;;;;;7.57;4.28;;;;;;;16.32;65.73;96237.13;4949045;28;20055;-77
2022/08/13 06:27:28;;;;;;;8.13;4.63;;;;;;;16.46;66.41;96233.91;4948740;28;20054;-77
2022/08/13 06:29:58;;;;;;;8.10;4.35;;;;;;;16.50;65.71;96234.81;4949386;28;20065;-77
2022/08/13 06:32:25;;;;;;;8.80;4.22;;;;;;;16.57;66.09;96232.19;4948432;28;20076;-76
2022/08/13 06:34:53;;;;;;;8.25;4.30;;;;;;;16.70;66.69;96236.41;4949018;28;20051;-76
2022/08/13 06:37:20;;;;;;;10.18;4.82;;;;;;;16.85;66.88;96238.31;4948316;28;20051;-75
2022/08/13 06:39:47;;;;;;;9.88;5.40;;;;;;;16.97;67.83;96233.84;4948946;28;20423;-76
2022/08/13 06:42:14;;;;;;;8.68;4.93;;;;;;;17.06;68.50;96237.16;4948214;28;20054;-78
2022/08/13 06:44:43;;;;;;;8.88;5.32;;;;;;;17.18;68.21;96235.06;4949164;28;20055;-77
2022/08/13 06:47:09;;;;;;;8.35;5.00;;;;;;;17.27;69.08;96231.28;4948352;28;20055;-77
2022/08/13 06:49:37;;;;;;;8.75;5.30;;;;;;;17.32;68.94;96234.53;4948873;28;20047;-77
2022/08/13 06:52:05;;;;;;;9.38;5.97;;;;;;;17.35;68.98;96244.81;4948188;28;20051;-77
2022/08/13 06:54:33;;;;;;;13.93;5.70;;;;;;;17.42;68.24;96239.44;4948718;28;20084;-77
2022/08/13 06:57:01;;;;;;;8.32;4.78;;;;;;;17.58;67.35;96242.09;4948805;28;20055;-77
2022/08/13 06:59:33;;;;;;;11.63;5.50;;;;;;;17.65;66.53;96246.94;4957164;28;20046;-77
2022/08/13 07:02:02;;;;;;;11.20;5.80;;;;;;;17.67;66.63;96242.66;4967703;28;20073;-77
2022/08/13 07:04:29;;;;;;;9.13;5.68;;;;;;;17.68;66.58;96248.97;4967689;28;20049;-77
2022/08/13 07:06:57;;;;;;;9.93;5.32;;;;;;;17.69;66.08;96242.28;4968088;28;20055;-77
2022/08/13 07:09:24;;;;;;;8.40;5.35;;;;;;;17.72;65.95;96236.06;4967695;28;20047;-77
2022/08/13 07:11:51;;;;;;;9.73;6.18;;;;;;;17.75;65.41;96240.88;4967909;28;20065;-77
2022/08/13 07:14:18;;;;;;;9.82;5.63;;;;;;;17.86;64.89;96241.06;4967692;28;20058;-76
2022/08/13 07:16:46;;;;;;;11.57;5.57;;;;;;;17.96;65.66;96243.97;4968045;28;20046;-76
2022/08/13 07:19:14;;;;;;;6.93;4.80;;;;;;;18.07;65.07;96243.38;4967304;28;20067;-77
2022/08/13 07:21:42;;;;;;;7.78;5.22;;;;;;;17.99;64.99;96240.47;4967983;28;20497;-77
2022/08/13 07:24:10;;;;;;;11.48;6.32;;;;;;;18.00;66.57;96242.06;4958107;28;20055;-77
2022/08/13 07:26:37;;;;;;;10.18;5.22;;;;;;;18.14;65.60;96246.22;4949029;28;20051;-77
2022/08/13 07:29:07;;;;;;;11.90;5.47;;;;;;;18.32;64.38;96247.28;4948397;28;20048;-77
2022/08/13 07:31:39;;;;;;;9.35;5.32;;;;;;;18.40;64.63;96245.44;4948897;28;20055;-78
2022/08/13 07:34:07;;;;;;;10.18;5.47;;;;;;;18.65;64.95;96243.84;4951964;28;20055;-78
2022/08/13 07:36:40;;;;;;;9.55;5.22;;;;;;;18.73;62.66;96244.75;4951953;28;20051;-75
2022/08/13 07:39:07;;;;;;;;;;;;;;;18.99;62.75;96243.91;4951540;28;20051;-76
2022/08/13 07:41:36;;;;;;;8.13;4.85;;;;;;;19.18;63.30;96241.00;4951050;28;20010;-76
2022/08/13 07:44:03;;;;;;;7.78;4.55;;;;;;;19.28;61.51;96247.81;4950553;28;20066;-78
2022/08/13 07:46:30;;;;;;;8.18;4.65;;;;;;;19.44;60.74;96253.91;4953012;28;20074;-79
2022/08/13 07:48:58;;;;;;;7.53;4.70;;;;;;;19.74;60.55;96248.34;4952695;28;20078;-77
2022/08/13 07:51:25;;;;;;;9.48;4.43;;;;;;;20.12;61.49;96245.50;4951508;28;20055;-77
2022/08/13 07:53:54;;;;;;;11.65;4.60;;;;;;;20.91;57.42;96242.09;4951943;28;20062;-78
2022/08/13 07:56:24;;;;;;;8.38;5.13;;;;;;;21.38;54.82;96248.66;4951391;28;20133;-77
2022/08/13 07:58:52;;;;;;;6.63;3.70;;;;;;;21.63;53.38;96252.28;4952138;28;20062;-77
2022/08/13 08:01:18;;;;;;;5.50;3.83;;;;;;;22.04;53.32;96245.63;4951578;28;20139;-77
2022/08/13 08:03:48;;;;;;;6.22;3.90;;;;;;;22.42;51.58;96255.16;4952472;28;20055;-77
2022/08/13 08:06:18;;;;;;;8.27;4.35;;;;;;;22.53;51.52;96250.38;4951727;28;20055;-77
2022/08/13 08:08:45;;;;;;;6.22;3.80;;;;;;;22.88;50.40;96254.31;4951900;28;20075;-77
2022/08/13 08:12:30;;;;;;;8.00;4.38;;;;;;;22.95;50.55;96257.06;4950870;28;20058;-76
2022/08/13 08:14:00;;;;;;;9.65;4.50;;;;;;;23.28;51.22;96250.19;4951514;28;20139;-78
2022/08/13 08:16:30;;;;;;;9.05;4.40;;;;;;;23.50;50.26;96256.47;4951615;28;20047;-77
2022/08/13 08:18:59;;;;;;;9.98;4.10;;;;;;;23.64;47.66;96245.28;4951379;28;20071;-77
2022/08/13 08:21:28;;;;;;;8.35;3.65;;;;;;;23.88;49.27;96249.13;4951009;28;20059;-77
2022/08/13 08:23:58;;;;;;;9.45;4.40;;;;;;;24.05;47.83;96263.31;4951610;28;20082;-77
2022/08/13 08:26:27;;;;;;;12.57;4.57;;;;;;;24.00;46.49;96261.75;4950685;28;20046;-78
2022/08/13 08:28:55;;;;;;;8.25;4.10;;;;;;;23.89;45.60;96256.25;4951182;28;20573;-77
2022/08/13 08:31:22;;;;;;;9.75;4.38;;;;;;;23.66;48.50;96259.59;4950710;28;20051;-77
2022/08/13 08:33:48;;;;;;;8.48;4.10;;;;;;;23.82;47.69;96264.66;4951146;28;20054;-77
2022/08/13 08:36:15;;;;;;;9.32;4.57;;;;;;;24.05;48.07;96255.75;4950594;28;20047;-77
2022/08/13 08:44:23;;;;;;;10.55;4.38;;;;;;;24.42;47.13;96249.53;4949337;28;20109;-76
2022/08/13 08:46:52;;;;;;;8.45;3.40;;;;;;;24.68;47.12;96250.09;4951949;28;20146;-79
2022/08/13 08:49:21;;;;;;;11.00;3.83;;;;;;;24.52;43.36;96250.63;4950387;28;20126;-76
2022/08/13 08:51:50;;;;;;;6.97;3.33;;;;;;;24.58;44.97;96251.75;4950477;28;20047;-77
2022/08/13 08:54:17;;;;;;;9.35;4.28;;;;;;;24.45;46.70;96248.72;4950150;28;20058;-76
2022/08/13 08:56:46;;;;;;;8.48;4.10;;;;;;;24.49;44.50;96243.13;4950393;28;20058;-76
2022/08/13 08:59:13;;;;;;;9.85;3.65;;;;;;;24.55;44.97;96243.47;4950341;28;20048;-77
2022/08/13 09:01:40;;;;;;;7.63;3.58;;;;;;;24.68;46.10;96245.31;4950610;28;20538;-76
2022/08/13 09:04:08;;;;;;;8.95;3.55;;;;;;;24.67;43.16;96243.72;4949781;28;20055;-76
2022/08/13 09:06:36;;;;;;;10.93;3.35;;;;;;;24.90;43.48;96240.31;4950444;28;20061;-76
2022/08/13 09:09:06;;;;;;;7.55;3.13;;;;;;;24.97;44.59;96239.44;4949912;28;20070;-78
2022/08/13 09:11:36;;;;;;;7.90;3.60;;;;;;;25.12;44.48;96238.13;4942101;28;20051;-76
2022/08/13 09:14:05;;;;;;;7.57;3.55;;;;;;;25.28;42.45;96245.88;4949917;28;20047;-76
2022/08/13 09:16:34;;;;;;;6.15;3.13;;;;;;;25.21;42.25;96235.63;4956490;28;20051;-80
2022/08/13 09:19:05;;;;;;;9.20;3.25;;;;;;;25.23;43.12;96244.34;4961777;28;20052;-81
2022/08/13 09:21:32;;;;;;;9.47;5.50;;;;;;;25.35;44.11;96242.22;4966278;28;20071;-80
2022/08/13 09:24:01;;;;;;;12.00;6.68;;;;;;;25.29;41.65;96243.88;4964039;28;20283;-81
2022/08/13 09:26:28;;;;;;;4.93;2.95;;;;;;;25.40;44.50;96244.53;4968126;28;20035;-81
2022/08/13 09:28:56;;;;;;;4.10;2.65;;;;;;;25.50;42.09;96241.59;4961799;28;20051;-80
2022/08/13 09:31:25;;;;;;;4.15;2.50;;;;;;;25.64;42.95;96237.84;4961676;28;20130;-80
2022/08/13 09:33:53;;;;;;;6.30;2.63;;;;;;;25.58;42.21;96235.94;4962821;28;20078;-80
2022/08/13 09:36:24;;;;;;;11.27;3.67;;;;;;;25.21;42.21;96234.81;4960969;28;20051;-80
2022/08/13 09:38:51;;;;;;;3.85;2.42;;;;;;;25.01;43.35;96240.22;4959721;28;20051;-80
2022/08/13 09:41:25;;;;;;;4.90;2.80;;;;;;;25.16;43.35;96241.66;4954701;28;20051;-81
2022/08/13 09:43:53;;;;;;;5.97;2.63;;;;;;;25.21;42.39;96240.38;4963239;28;20055;-80
2022/08/13 09:46:23;;;;;;;5.00;2.88;;;;;;;25.41;42.13;96246.09;4963883;28;20066;-81
2022/08/13 09:48:51;;;;;;;3.92;2.60;;;;;;;25.58;44.35;96239.53;4964503;28;20058;-82
2022/08/13 09:51:18;;;;;;;5.32;2.92;;;;;;;25.75;42.85;96232.16;4964301;28;20047;-80
2022/08/13 09:53:46;;;;;;;4.78;2.70;;;;;;;25.85;42.14;96231.19;4965735;28;20059;-80
2022/08/13 09:56:17;;;;;;;7.00;2.97;;;;;;;25.71;41.33;96243.31;4965372;28;20102;-80
2022/08/13 09:58:46;;;;;;;6.38;3.35;;;;;;;25.70;41.44;96236.16;4964914;28;20069;-79
2022/08/13 10:01:13;;;;;;;6.45;3.53;;;;;;;25.65;42.59;96227.47;4955692;28;20085;-80
2022/08/13 10:03:42;;;;;;;7.38;3.65;;;;;;;25.47;42.54;96227.72;4955774;28;20051;-80
2022/08/13 10:06:10;;;;;;;8.27;3.17;;;;;;;25.31;43.89;96230.31;4954564;28;20186;-78
2022/08/13 10:08:37;;;;;;;10.82;4.40;;;;;;;25.31;42.64;96224.72;4956207;28;20423;-81
2022/08/13 10:11:04;;;;;;;11.68;7.40;;;;;;;25.23;43.64;96230.41;4963246;28;20063;-80
2022/08/13 10:13:30;;;;;;;7.40;3.63;;;;;;;25.15;42.52;96228.91;4955919;28;20074;-81
2022/08/13 10:15:57;;;;;;;6.25;3.05;;;;;;;24.98;42.37;96224.31;4956780;28;20055;-80
2022/08/13 10:18:31;;;;;;;8.20;3.50;;;;;;;24.88;44.30;96228.78;4959368;28;20521;-80
2022/08/13 10:20:58;;;;;;;6.20;3.25;;;;;;;24.90;43.00;96222.78;4964758;28;20071;-80
2022/08/13 10:23:26;;;;;;;5.90;3.10;;;;;;;24.93;43.67;96221.97;4967028;28;20107;-80
2022/08/13 10:25:53;;;;;;;6.30;3.47;;;;;;;25.05;41.42;96229.78;4965365;28;20047;-80
2022/08/13 10:28:26;;;;;;;8.63;3.67;;;;;;;25.27;42.60;96223.97;4955990;28;20436;-79
2022/08/13 10:30:54;;;;;;;5.03;2.75;;;;;;;25.37;42.73;96228.63;4954650;28;20051;-81
2022/08/13 10:33:23;;;;;;;7.85;3.90;;;;;;;25.57;41.09;96215.63;4953141;28;20098;-76
2022/08/13 10:35:52;;;;;;;6.97;3.58;;;;;;;25.68;41.51;96215.47;4948770;28;20075;-78
2022/08/13 10:38:20;;;;;;;6.70;3.08;;;;;;;25.49;40.87;96219.72;4949755;28;20054;-79
2022/08/13 10:40:48;;;;;;;9.77;4.80;;;;;;;25.40;41.46;96216.66;4949662;28;20062;-77
2022/08/13 10:43:16;;;;;;;8.30;3.78;;;;;;;25.25;40.90;96213.25;4948876;28;20063;-78
2022/08/13 10:45:45;;;;;;;7.20;3.28;;;;;;;25.32;40.71;96206.81;4949104;28;20114;-78
2022/08/13 10:48:13;;;;;;;5.22;3.08;;;;;;;25.33;39.13;96206.41;4950781;28;20039;-80
2022/08/13 10:50:40;;;;;;;5.05;2.97;;;;;;;25.25;38.69;96211.25;4952367;28;20702;-80
2022/08/13 10:53:07;;;;;;;5.32;2.60;;;;;;;25.23;39.91;96196.97;4959389;28;20042;-80
2022/08/13 10:55:35;;;;;;;6.57;3.05;;;;;;;25.41;42.67;96204.28;4985618;28;20035;-80
2022/08/13 10:58:11;;;;;;;5.68;2.75;;;;;;;25.40;39.36;96213.88;5019757;23;20080;-78
2022/08/13 11:00:38;;;;;;;7.75;2.58;;;;;;;25.48;39.30;96201.44;5004198;28;20074;-81
2022/08/13 11:05:29;;;;;;;6.28;3.53;;;;;;;25.67;38.37;96203.53;5040421;23;20046;-80
2022/08/13 11:07:56;;;;;;;5.70;2.83;;;;;;;25.71;40.24;96198.69;5008595;28;20118;-80
2022/08/13 11:10:23;;;;;;;3.70;2.33;;;;;;;25.58;38.99;96197.72;5028628;23;20034;-81
2022/08/13 11:12:51;;;;;;;9.45;3.38;;;;;;;25.49;39.21;96197.44;5037055;23;20050;-79
2022/08/13 11:15:28;;;;;;;6.32;2.95;;;;;;;25.43;37.43;96190.75;5012736;28;20077;-81
2022/08/13 11:17:54;;;;;;;7.63;3.53;;;;;;;25.42;39.85;96191.94;5015953;28;20052;-79
2022/08/13 11:20:24;;;;;;;8.10;3.63;;;;;;;25.38;39.69;96196.78;5010483;28;20060;-77
2022/08/13 11:22:53;;;;;;;8.73;3.75;;;;;;;25.27;39.34;96190.53;5011025;28;20132;-78
2022/08/13 11:25:20;;;;;;;3.03;2.17;;;;;;;25.48;40.17;96188.28;5005508;28;20031;-79
2022/08/13 11:27:47;;;;;;;5.72;3.10;;;;;;;25.59;39.83;96184.56;5011837;28;20050;-79
2022/08/13 11:30:14;;;;;;;5.75;3.03;;;;;;;25.58;40.53;96183.75;4993303;28;20060;-79
2022/08/13 11:32:43;;;;;;;4.55;2.38;;;;;;;25.75;39.45;96188.31;4998854;28;20050;-80
2022/08/13 11:35:10;;;;;;;5.47;2.92;;;;;;;25.86;40.35;96181.78;5005181;28;20042;-80
2022/08/13 11:37:37;;;;;;;5.47;3.13;;;;;;;25.77;39.09;96180.31;5001416;28;20046;-79
2022/08/13 11:40:05;;;;;;;4.40;2.70;;;;;;;25.77;39.76;96173.94;5046400;23;20050;-79
2022/08/13 11:42:32;;;;;;;5.88;3.20;;;;;;;25.85;39.26;96181.00;5090642;23;20699;-77
2022/08/13 11:44:59;;;;;;;7.70;3.58;;;;;;;25.83;39.18;96175.03;5010539;28;20050;-77
2022/08/13 11:47:26;;;;;;;3.83;2.38;;;;;;;25.90;38.75;96183.31;5014943;28;20056;-80
2022/08/13 11:49:54;;;;;;;6.20;3.00;;;;;;;25.65;36.67;96182.88;5010825;28;20054;-78
2022/08/13 11:52:20;;;;;;;5.85;2.95;;;;;;;25.56;37.85;96180.59;5009909;28;20054;-77
2022/08/13 11:54:47;;;;;;;7.05;3.22;;;;;;;25.54;37.89;96183.03;5006457;28;20059;-77
2022/08/13 11:57:13;;;;;;;6.38;2.90;;;;;;;25.45;38.32;96180.75;4989622;28;20043;-77
2022/08/13 11:59:40;;;;;;;6.38;3.10;;;;;;;25.34;38.64;96180.09;4990286;28;20422;-77